createdAt,value
2019-06-26T00:00:36.365Z,99516.17
2019-06-26T00:01:43.484Z,99518.48
2019-06-26T00:02:52.338Z,99515.97
2019-06-26T00:04:00.411Z,99514.09
2019-06-26T00:05:09.926Z,99507.80
2019-06-26T00:06:17.914Z,99507.14
2019-06-26T00:07:28.362Z,99500.47
2019-06-26T00:08:36.789Z,99510.53
2019-06-26T00:09:45.784Z,99500.68
2019-06-26T00:10:53.938Z,99497.95
2019-06-26T00:12:03.057Z,99498.14
2019-06-26T00:13:34.720Z,99510.92
2019-06-26T00:14:43.874Z,99509.23
2019-06-26T00:15:52.050Z,99503.17
2019-06-26T00:17:01.112Z,99497.72
2019-06-26T00:18:09.298Z,99503.80
2019-06-26T00:19:18.313Z,99502.12
2019-06-26T00:20:26.837Z,99504.63
2019-06-26T00:21:35.810Z,99502.95
2019-06-26T00:22:43.952Z,99502.55
2019-06-26T00:23:52.824Z,99496.65
2019-06-26T00:25:01.171Z,99503.38
2019-06-26T00:26:10.191Z,99495.60
2019-06-26T00:27:18.342Z,99495.81
2019-06-26T00:28:27.216Z,99496.23
2019-06-26T00:29:35.272Z,99496.63
2019-06-26T00:30:44.992Z,99491.80
2019-06-26T00:31:53.309Z,99491.80
2019-06-26T00:33:02.102Z,99490.97
2019-06-26T00:34:10.031Z,99492.02
2019-06-26T00:35:19.156Z,99500.19
2019-06-26T00:36:27.762Z,99495.78
2019-06-26T00:37:36.631Z,99497.88
2019-06-26T00:38:49.161Z,99497.05
2019-06-26T00:39:58.124Z,99498.27
2019-06-26T00:41:06.772Z,99502.25
2019-06-26T00:42:15.867Z,99498.69
2019-06-26T00:43:24.033Z,99502.46
2019-06-26T00:44:32.949Z,99494.51
2019-06-26T00:45:41.106Z,99496.57
2019-06-26T00:46:50.052Z,99496.99
2019-06-26T00:47:58.316Z,99492.80
2019-06-26T00:49:07.243Z,99499.47
2019-06-26T00:50:17.487Z,99494.45
2019-06-26T00:51:26.820Z,99499.05
2019-06-26T00:52:35.121Z,99494.66
2019-06-26T00:53:44.038Z,99494.00
2019-06-26T00:54:52.269Z,99498.81
2019-06-26T00:56:01.080Z,99497.77
2019-06-26T00:57:09.125Z,99489.18
2019-06-26T00:58:18.005Z,99500.24
2019-06-26T00:59:26.170Z,99497.28
2019-06-26T01:00:47.813Z,99498.91
2019-06-26T01:01:56.020Z,99500.80
2019-06-26T01:03:04.781Z,99493.44
2019-06-26T01:04:14.464Z,99497.20
2019-06-26T01:05:23.409Z,99500.30
2019-06-26T01:06:43.661Z,99500.30
2019-06-26T01:07:52.429Z,99497.41
2019-06-26T01:09:00.566Z,99499.92
2019-06-26T01:10:12.068Z,99495.95
2019-06-26T01:11:21.690Z,99498.87
2019-06-26T01:12:30.583Z,99504.11
2019-06-26T01:13:38.556Z,99504.11
2019-06-26T01:14:47.416Z,99501.18
2019-06-26T01:15:55.595Z,99500.55
2019-06-26T01:17:04.997Z,99504.31
2019-06-26T01:18:13.424Z,99507.04
2019-06-26T01:19:22.588Z,99501.80
2019-06-26T01:20:30.804Z,99501.80
2019-06-26T01:21:39.469Z,99505.57
2019-06-26T01:22:47.595Z,99501.55
2019-06-26T01:23:56.304Z,99499.25
2019-06-26T01:25:04.957Z,99500.47
2019-06-26T01:26:13.322Z,99499.20
2019-06-26T01:27:21.315Z,99497.48
2019-06-26T01:28:30.782Z,99503.92
2019-06-26T01:29:38.877Z,99503.92
2019-06-26T01:30:47.722Z,99499.70
2019-06-26T01:31:55.805Z,99495.30
2019-06-26T01:33:04.725Z,99499.06
2019-06-26T01:34:12.499Z,99498.23
2019-06-26T01:35:21.397Z,99502.24
2019-06-26T01:36:29.509Z,99500.74
2019-06-26T01:37:38.501Z,99497.39
2019-06-26T01:38:46.499Z,99493.20
2019-06-26T01:39:55.384Z,99496.09
2019-06-26T01:41:03.775Z,99490.86
2019-06-26T01:42:12.587Z,99495.25
2019-06-26T01:43:20.741Z,99490.65
2019-06-26T01:44:29.860Z,99490.86
2019-06-26T01:45:37.969Z,99488.55
2019-06-26T01:46:46.993Z,99484.16
2019-06-26T01:47:55.072Z,99485.37
2019-06-26T01:49:04.073Z,99485.37
2019-06-26T01:50:12.940Z,99491.84
2019-06-26T01:51:22.415Z,99487.66
2019-06-26T01:52:30.614Z,99488.30
2019-06-26T01:53:39.641Z,99483.06
2019-06-26T01:54:47.679Z,99483.90
2019-06-26T01:55:56.847Z,99475.11
2019-06-26T01:57:05.071Z,99479.67
2019-06-26T01:58:13.767Z,99478.66
2019-06-26T01:59:21.626Z,99474.06
2019-06-26T02:00:30.010Z,99480.34
2019-06-26T02:01:38.138Z,99479.30
2019-06-26T02:02:47.360Z,99478.80
2019-06-26T02:03:55.678Z,99479.84
2019-06-26T02:05:04.962Z,99483.34
2019-06-26T02:06:13.301Z,99481.50
2019-06-26T02:07:22.272Z,99474.56
2019-06-26T02:08:30.493Z,99477.91
2019-06-26T02:09:39.239Z,99473.34
2019-06-26T02:10:47.167Z,99474.19
2019-06-26T02:11:56.025Z,99474.19
2019-06-26T02:13:04.651Z,99477.74
2019-06-26T02:14:13.361Z,99471.47
2019-06-26T02:15:21.830Z,99474.19
2019-06-26T02:16:30.658Z,99471.47
2019-06-26T02:17:38.678Z,99472.94
2019-06-26T02:19:03.588Z,99470.02
2019-06-26T02:20:12.228Z,99470.22
2019-06-26T02:21:21.252Z,99471.47
2019-06-26T02:22:29.387Z,99473.29
2019-06-26T02:23:38.347Z,99477.02
2019-06-26T02:24:46.461Z,99476.18
2019-06-26T02:25:55.261Z,99472.83
2019-06-26T02:27:03.583Z,99472.20
2019-06-26T02:28:12.137Z,99477.63
2019-06-26T02:29:20.369Z,99477.16
2019-06-26T02:30:29.489Z,99478.20
2019-06-26T02:31:37.586Z,99473.17
2019-06-26T02:32:46.277Z,99475.05
2019-06-26T02:33:54.451Z,99477.11
2019-06-26T02:35:07.789Z,99473.81
2019-06-26T02:36:13.178Z,99468.78
2019-06-26T02:37:22.026Z,99478.98
2019-06-26T02:38:30.106Z,99480.69
2019-06-26T02:39:38.879Z,99478.61
2019-06-26T02:40:47.186Z,99473.95
2019-06-26T02:41:56.188Z,99476.03
2019-06-26T02:43:07.064Z,99477.71
2019-06-26T02:44:15.596Z,99473.95
2019-06-26T02:45:24.197Z,99471.03
2019-06-26T02:46:33.075Z,99473.95
2019-06-26T02:47:41.152Z,99470.97
2019-06-26T02:48:50.016Z,99465.73
2019-06-26T02:49:58.119Z,99472.65
2019-06-26T02:51:07.143Z,99466.38
2019-06-26T02:52:15.213Z,99473.05
2019-06-26T02:53:24.134Z,99463.23
2019-06-26T02:54:32.375Z,99471.95
2019-06-26T02:55:41.218Z,99464.00
2019-06-26T02:56:49.474Z,99466.72
2019-06-26T02:57:58.121Z,99469.84
2019-06-26T02:59:06.339Z,99468.80
2019-06-26T03:00:16.113Z,99472.55
2019-06-26T03:01:24.507Z,99477.12
2019-06-26T03:02:33.313Z,99464.98
2019-06-26T03:03:41.779Z,99462.83
2019-06-26T03:04:51.257Z,99457.33
2019-06-26T03:05:59.242Z,99457.33
2019-06-26T03:07:08.149Z,99465.11
2019-06-26T03:08:16.110Z,99463.60
2019-06-26T03:09:24.832Z,99462.59
2019-06-26T03:10:33.480Z,99470.55
2019-06-26T03:11:42.252Z,99472.22
2019-06-26T03:12:50.303Z,99471.58
2019-06-26T03:13:59.017Z,99478.69
2019-06-26T03:15:09.986Z,99468.66
2019-06-26T03:16:18.772Z,99471.18
2019-06-26T03:17:27.440Z,99471.75
2019-06-26T03:18:36.297Z,99475.97
2019-06-26T03:19:44.587Z,99468.03
2019-06-26T03:20:57.974Z,99477.02
2019-06-26T03:22:06.127Z,99475.13
2019-06-26T03:23:15.459Z,99476.17
2019-06-26T03:24:23.501Z,99462.77
2019-06-26T03:25:32.276Z,99474.47
2019-06-26T03:26:40.302Z,99474.83
2019-06-26T03:27:49.242Z,99475.23
2019-06-26T03:28:57.032Z,99479.35
2019-06-26T03:30:08.438Z,99476.64
2019-06-26T03:31:16.811Z,99475.59
2019-06-26T03:32:25.643Z,99471.84
2019-06-26T03:33:34.155Z,99482.54
2019-06-26T03:34:43.026Z,99473.52
2019-06-26T03:35:50.916Z,99471.48
2019-06-26T03:36:59.285Z,99482.34
2019-06-26T03:38:07.557Z,99474.20
2019-06-26T03:39:16.317Z,99477.75
2019-06-26T03:40:24.518Z,99477.75
2019-06-26T03:41:33.604Z,99487.57
2019-06-26T03:42:41.751Z,99473.99
2019-06-26T03:43:50.506Z,99481.50
2019-06-26T03:44:58.626Z,99486.73
2019-06-26T03:46:07.547Z,99487.77
2019-06-26T03:47:15.704Z,99491.05
2019-06-26T03:48:24.659Z,99488.13
2019-06-26T03:49:32.665Z,99495.91
2019-06-26T03:50:41.262Z,99493.84
2019-06-26T03:51:49.387Z,99482.81
2019-06-26T03:52:58.321Z,99489.08
2019-06-26T03:54:06.452Z,99487.20
2019-06-26T03:55:15.543Z,99487.03
2019-06-26T03:56:23.476Z,99484.48
2019-06-26T03:57:35.285Z,99485.16
2019-06-26T03:58:42.213Z,99486.00
2019-06-26T03:59:50.961Z,99486.64
2019-06-26T04:00:58.996Z,99482.05
2019-06-26T04:02:07.954Z,99486.44
2019-06-26T04:03:16.340Z,99487.95
2019-06-26T04:04:27.897Z,99488.78
2019-06-26T04:05:36.316Z,99486.91
2019-06-26T04:06:45.861Z,99495.69
2019-06-26T04:07:54.177Z,99484.63
2019-06-26T04:09:03.201Z,99495.29
2019-06-26T04:10:11.711Z,99492.58
2019-06-26T04:11:20.554Z,99489.86
2019-06-26T04:12:28.545Z,99487.14
2019-06-26T04:13:37.470Z,99487.98
2019-06-26T04:14:45.904Z,99487.14
2019-06-26T04:15:54.711Z,99485.94
2019-06-26T04:17:02.911Z,99489.29
2019-06-26T04:18:11.842Z,99478.89
2019-06-26T04:19:19.970Z,99476.81
2019-06-26T04:20:28.943Z,99478.09
2019-06-26T04:21:37.273Z,99482.11
2019-06-26T04:22:47.667Z,99492.34
2019-06-26T04:23:55.927Z,99480.23
2019-06-26T04:25:06.589Z,99488.17
2019-06-26T04:26:15.077Z,99489.02
2019-06-26T04:27:23.853Z,99486.50
2019-06-26T04:28:32.032Z,99480.80
2019-06-26T04:29:40.922Z,99484.19
2019-06-26T04:30:49.159Z,99490.05
2019-06-26T04:31:58.110Z,99486.97
2019-06-26T04:33:06.331Z,99488.84
2019-06-26T04:34:15.474Z,99487.80
2019-06-26T04:35:23.337Z,99484.68
2019-06-26T04:36:32.320Z,99485.31
2019-06-26T04:37:40.395Z,99487.86
2019-06-26T04:38:48.627Z,99492.89
2019-06-26T04:39:56.868Z,99489.97
2019-06-26T04:41:06.117Z,99490.44
2019-06-26T04:42:14.382Z,99488.35
2019-06-26T04:43:23.325Z,99492.55
2019-06-26T04:44:31.417Z,99491.27
2019-06-26T04:45:40.498Z,99490.87
2019-06-26T04:46:48.407Z,99490.49
2019-06-26T04:47:57.534Z,99491.33
2019-06-26T04:49:05.863Z,99493.01
2019-06-26T04:50:17.025Z,99499.72
2019-06-26T04:51:25.814Z,99497.48
2019-06-26T04:52:34.822Z,99493.09
2019-06-26T04:53:43.153Z,99489.33
2019-06-26T04:54:52.466Z,99491.01
2019-06-26T04:56:00.456Z,99493.52
2019-06-26T04:57:09.499Z,99499.42
2019-06-26T04:58:17.565Z,99497.59
2019-06-26T04:59:26.299Z,99493.83
2019-06-26T05:00:34.463Z,99496.34
2019-06-26T05:01:43.254Z,99490.07
2019-06-26T05:02:51.236Z,99497.81
2019-06-26T05:04:01.446Z,99497.81
2019-06-26T05:05:10.311Z,99496.98
2019-06-26T05:06:19.142Z,99494.47
2019-06-26T05:07:27.078Z,99490.70
2019-06-26T05:08:36.400Z,99491.36
2019-06-26T05:09:44.455Z,99487.40
2019-06-26T05:10:53.603Z,99491.80
2019-06-26T05:12:01.820Z,99494.52
2019-06-26T05:13:10.719Z,99491.80
2019-06-26T05:14:19.114Z,99492.84
2019-06-26T05:15:28.075Z,99493.88
2019-06-26T05:16:36.464Z,99491.59
2019-06-26T05:17:45.455Z,99493.47
2019-06-26T05:18:53.783Z,99490.55
2019-06-26T05:20:02.809Z,99488.87
2019-06-26T05:21:10.990Z,99491.00
2019-06-26T05:22:20.177Z,99491.25
2019-06-26T05:23:28.157Z,99491.25
2019-06-26T05:24:36.887Z,99496.87
2019-06-26T05:25:44.951Z,99485.81
2019-06-26T05:26:54.221Z,99494.14
2019-06-26T05:28:02.472Z,99496.03
2019-06-26T05:29:11.321Z,99493.97
2019-06-26T05:30:21.186Z,99493.77
2019-06-26T05:31:30.122Z,99490.63
2019-06-26T05:32:38.607Z,99483.10
2019-06-26T05:33:47.444Z,99476.69
2019-06-26T05:34:55.619Z,99484.23
2019-06-26T05:36:04.659Z,99485.73
2019-06-26T05:37:12.952Z,99483.42
2019-06-26T05:38:22.059Z,99481.33
2019-06-26T05:39:30.238Z,99491.45
2019-06-26T05:40:39.100Z,99484.37
2019-06-26T05:41:47.580Z,99493.61
2019-06-26T05:42:56.200Z,99491.94
2019-06-26T05:44:05.724Z,99495.95
2019-06-26T05:46:35.839Z,99492.83
2019-06-26T05:47:44.935Z,99488.67
2019-06-26T05:48:53.008Z,99490.13
2019-06-26T05:50:02.116Z,99488.91
2019-06-26T05:51:10.350Z,99487.22
2019-06-26T05:52:19.721Z,99499.39
2019-06-26T05:53:27.891Z,99486.19
2019-06-26T05:54:37.326Z,99487.23
2019-06-26T05:55:45.755Z,99492.30
2019-06-26T05:56:55.051Z,99487.06
2019-06-26T05:58:03.458Z,99487.45
2019-06-26T05:59:12.447Z,99484.10
2019-06-26T06:00:21.328Z,99486.83
2019-06-26T06:01:30.659Z,99486.19
2019-06-26T06:02:39.701Z,99484.54
2019-06-26T06:03:49.180Z,99485.81
2019-06-26T06:04:57.312Z,99485.42
2019-06-26T06:06:06.676Z,99483.96
2019-06-26T06:07:15.098Z,99483.53
2019-06-26T06:08:23.962Z,99482.92
2019-06-26T06:09:32.790Z,99480.61
2019-06-26T06:10:41.748Z,99483.78
2019-06-26T06:11:50.043Z,99492.36
2019-06-26T06:12:59.198Z,99489.23
2019-06-26T06:14:07.792Z,99490.69
2019-06-26T06:15:18.093Z,99490.91
2019-06-26T06:16:26.659Z,99489.03
2019-06-26T06:17:35.649Z,99490.48
2019-06-26T06:18:43.852Z,99488.61
2019-06-26T06:19:53.079Z,99487.99
2019-06-26T06:21:01.104Z,99489.05
2019-06-26T06:22:10.362Z,99497.63
2019-06-26T06:23:18.696Z,99495.97
2019-06-26T06:24:27.809Z,99492.81
2019-06-26T06:25:36.181Z,99493.24
2019-06-26T06:26:45.442Z,99498.11
2019-06-26T06:27:54.579Z,99489.93
2019-06-26T06:30:21.297Z,99494.73
2019-06-26T06:31:30.534Z,99502.29
2019-06-26T06:32:39.030Z,99502.69
2019-06-26T06:33:48.289Z,99506.07
2019-06-26T06:34:56.462Z,99503.34
2019-06-26T06:36:09.443Z,99503.96
2019-06-26T06:37:15.829Z,99511.52
2019-06-26T06:38:24.858Z,99507.09
2019-06-26T06:39:32.744Z,99508.58
2019-06-26T06:40:41.522Z,99502.91
2019-06-26T06:41:49.656Z,99504.80
2019-06-26T06:42:58.765Z,99506.91
2019-06-26T06:44:07.041Z,99511.70
2019-06-26T06:45:16.408Z,99511.48
2019-06-26T06:47:03.323Z,99507.92
2019-06-26T06:48:05.453Z,99508.56
2019-06-26T06:49:45.280Z,99514.42
2019-06-26T06:50:59.810Z,99511.47
2019-06-26T06:52:20.950Z,99511.91
2019-06-26T06:53:50.902Z,99504.33
2019-06-26T06:55:22.182Z,99515.67
2019-06-26T06:56:33.678Z,99521.09
2019-06-26T06:57:42.176Z,99513.55
2019-06-26T06:58:50.904Z,99516.48
2019-06-26T06:59:58.982Z,99509.78
2019-06-26T07:01:07.900Z,99515.86
2019-06-26T07:02:16.018Z,99513.34
2019-06-26T07:03:24.837Z,99512.89
2019-06-26T07:04:32.891Z,99510.59
2019-06-26T07:05:41.611Z,99500.89
2019-06-26T07:06:49.537Z,99512.02
2019-06-26T07:07:58.525Z,99505.27
2019-06-26T07:09:08.085Z,99509.48
2019-06-26T07:10:17.069Z,99509.66
2019-06-26T07:11:25.088Z,99510.46
2019-06-26T07:12:37.322Z,99499.73
2019-06-26T07:13:45.398Z,99506.84
2019-06-26T07:14:54.367Z,99510.63
2019-06-26T07:16:02.354Z,99507.28
2019-06-26T07:17:20.739Z,99507.06
2019-06-26T07:18:20.721Z,99508.50
2019-06-26T07:19:29.443Z,99506.58
2019-06-26T07:20:37.494Z,99507.19
2019-06-26T07:21:46.474Z,99510.56
2019-06-26T07:22:54.407Z,99510.34
2019-06-26T07:24:03.499Z,99507.38
2019-06-26T07:25:11.926Z,99503.58
2019-06-26T07:26:20.906Z,99498.08
2019-06-26T07:27:28.787Z,99498.87
2019-06-26T07:28:37.613Z,99507.48
2019-06-26T07:29:45.764Z,99499.05
2019-06-26T07:30:54.587Z,99493.97
2019-06-26T07:32:02.389Z,99494.16
2019-06-26T07:33:11.066Z,99492.66
2019-06-26T07:34:19.069Z,99492.61
2019-06-26T07:35:27.795Z,99495.12
2019-06-26T07:36:36.016Z,99496.36
2019-06-26T07:37:44.827Z,99495.94
2019-06-26T07:38:53.262Z,99488.11
2019-06-26T07:40:02.571Z,99489.35
2019-06-26T07:41:11.039Z,99485.32
2019-06-26T07:42:19.767Z,99488.83
2019-06-26T07:43:27.972Z,99489.67
2019-06-26T07:44:36.818Z,99491.57
2019-06-26T07:45:44.733Z,99491.34
2019-06-26T07:46:53.510Z,99485.67
2019-06-26T07:48:01.668Z,99489.01
2019-06-26T07:49:11.531Z,99479.50
2019-06-26T07:50:20.014Z,99491.92
2019-06-26T07:51:28.800Z,99480.68
2019-06-26T07:52:37.578Z,99483.02
2019-06-26T07:53:46.613Z,99481.95
2019-06-26T07:54:54.850Z,99476.70
2019-06-26T07:56:03.893Z,99480.74
2019-06-26T07:57:12.097Z,99475.87
2019-06-26T07:58:20.968Z,99473.73
2019-06-26T07:59:29.099Z,99479.61
2019-06-26T08:00:38.087Z,99478.00
2019-06-26T08:01:46.030Z,99480.34
2019-06-26T08:02:54.777Z,99477.17
2019-06-26T08:04:03.255Z,99474.44
2019-06-26T08:05:13.267Z,99474.58
2019-06-26T08:06:23.016Z,99485.38
2019-06-26T08:07:32.185Z,99480.34
2019-06-26T08:08:40.470Z,99476.77
2019-06-26T08:09:49.875Z,99477.77
2019-06-26T08:10:58.070Z,99468.06
2019-06-26T08:12:07.483Z,99473.24
2019-06-26T08:13:15.700Z,99477.58
2019-06-26T08:14:23.981Z,99476.71
2019-06-26T08:15:32.214Z,99477.75
2019-06-26T08:16:40.958Z,99475.01
2019-06-26T08:17:59.772Z,99475.41
2019-06-26T08:19:00.637Z,99476.41
2019-06-26T08:20:08.941Z,99472.53
2019-06-26T08:21:19.473Z,99475.19
2019-06-26T08:22:27.612Z,99468.77
2019-06-26T08:23:36.654Z,99475.00
2019-06-26T08:24:45.035Z,99464.05
2019-06-26T08:25:54.994Z,99471.83
2019-06-26T08:27:03.003Z,99465.59
2019-06-26T08:28:11.223Z,99465.82
2019-06-26T08:29:19.383Z,99463.32
2019-06-26T08:30:28.722Z,99466.13
2019-06-26T08:31:36.909Z,99463.86
2019-06-26T08:32:46.053Z,99468.40
2019-06-26T08:33:54.044Z,99468.33
2019-06-26T08:35:02.857Z,99465.15
2019-06-26T08:36:10.884Z,99465.08
2019-06-26T08:37:19.842Z,99461.27
2019-06-26T08:38:27.977Z,99472.58
2019-06-26T08:39:36.896Z,99461.42
2019-06-26T08:40:44.934Z,99465.36
2019-06-26T08:41:54.108Z,99471.15
2019-06-26T08:43:02.054Z,99455.02
2019-06-26T08:44:10.844Z,99458.03
2019-06-26T08:45:18.994Z,99456.96
2019-06-26T08:46:27.904Z,99459.81
2019-06-26T08:47:36.028Z,99457.91
2019-06-26T08:48:45.067Z,99457.44
2019-06-26T08:49:53.933Z,99462.23
2019-06-26T08:51:02.882Z,99457.02
2019-06-26T08:52:11.553Z,99453.70
2019-06-26T08:53:20.430Z,99463.29
2019-06-26T08:54:28.595Z,99463.19
2019-06-26T08:55:37.503Z,99453.89
2019-06-26T08:56:45.657Z,99451.50
2019-06-26T08:57:55.030Z,99459.91
2019-06-26T08:59:02.998Z,99456.67
2019-06-26T09:00:15.091Z,99450.60
2019-06-26T09:01:23.556Z,99463.00
2019-06-26T09:02:32.357Z,99451.58
2019-06-26T09:03:42.077Z,99452.41
2019-06-26T09:04:51.075Z,99455.63
2019-06-26T09:05:59.631Z,99452.44
2019-06-26T09:07:07.993Z,99457.55
2019-06-26T09:08:16.170Z,99463.41
2019-06-26T09:09:25.086Z,99455.18
2019-06-26T09:10:33.119Z,99453.86
2019-06-26T09:11:42.216Z,99453.27
2019-06-26T09:12:50.430Z,99456.48
2019-06-26T09:13:59.428Z,99446.24
2019-06-26T09:15:08.400Z,99441.94
2019-06-26T09:16:17.074Z,99442.20
2019-06-26T09:17:25.092Z,99449.02
2019-06-26T09:18:35.873Z,99446.65
2019-06-26T09:19:43.824Z,99445.08
2019-06-26T09:20:52.502Z,99451.64
2019-06-26T09:22:00.547Z,99450.10
2019-06-26T09:23:09.617Z,99442.91
2019-06-26T09:24:18.036Z,99442.70
2019-06-26T09:25:26.539Z,99446.73
2019-06-26T09:26:34.570Z,99436.25
2019-06-26T09:27:44.508Z,99448.77
2019-06-26T09:28:52.656Z,99442.20
2019-06-26T09:30:01.262Z,99446.52
2019-06-26T09:31:09.121Z,99446.16
2019-06-26T09:32:18.003Z,99444.95
2019-06-26T09:33:26.211Z,99442.55
2019-06-26T09:34:35.033Z,99438.75
2019-06-26T09:35:43.315Z,99443.04
2019-06-26T09:36:52.121Z,99445.53
2019-06-26T09:38:00.180Z,99441.95
2019-06-26T09:39:10.538Z,99441.38
2019-06-26T09:40:19.402Z,99442.82
2019-06-26T09:41:28.331Z,99435.88
2019-06-26T09:42:36.366Z,99438.75
2019-06-26T09:43:45.331Z,99442.06
2019-06-26T09:44:53.523Z,99437.06
2019-06-26T09:46:02.326Z,99425.48
2019-06-26T09:47:10.537Z,99424.90
2019-06-26T09:48:19.493Z,99429.56
2019-06-26T09:49:27.342Z,99428.61
2019-06-26T09:50:36.145Z,99430.73
2019-06-26T09:51:44.050Z,99427.41
2019-06-26T09:52:53.143Z,99433.39
2019-06-26T09:54:01.000Z,99430.64
2019-06-26T09:55:10.374Z,99430.02
2019-06-26T09:56:18.449Z,99426.30
2019-06-26T09:57:27.412Z,99419.38
2019-06-26T09:58:35.316Z,99421.99
2019-06-26T09:59:44.602Z,99426.87
2019-06-26T10:00:52.869Z,99428.39
2019-06-26T10:02:02.028Z,99429.70
2019-06-26T10:03:10.291Z,99421.71
2019-06-26T10:04:19.406Z,99431.00
2019-06-26T10:05:27.436Z,99422.07
2019-06-26T10:06:36.156Z,99427.84
2019-06-26T10:07:44.264Z,99420.20
2019-06-26T10:08:54.555Z,99411.76
2019-06-26T10:10:03.411Z,99425.94
2019-06-26T10:11:12.268Z,99421.64
2019-06-26T10:12:20.777Z,99407.17
2019-06-26T10:13:29.918Z,99405.40
2019-06-26T10:14:47.460Z,99413.64
2019-06-26T10:15:48.281Z,99416.00
2019-06-26T10:16:56.784Z,99409.03
2019-06-26T10:18:06.126Z,99405.41
2019-06-26T10:20:32.186Z,99405.33
2019-06-26T10:21:40.911Z,99416.11
2019-06-26T10:22:49.202Z,99406.68
2019-06-26T10:23:58.116Z,99416.69
2019-06-26T10:25:11.087Z,99394.20
2019-06-26T10:26:17.899Z,99391.59
2019-06-26T10:27:25.783Z,99404.92
2019-06-26T10:28:34.554Z,99389.61
2019-06-26T10:29:42.639Z,99387.02
2019-06-26T10:30:51.811Z,99391.63
2019-06-26T10:32:00.495Z,99380.95
2019-06-26T10:33:09.285Z,99383.70
2019-06-26T10:34:17.377Z,99379.54
2019-06-26T10:35:26.140Z,99377.77
2019-06-26T10:36:33.946Z,99375.94
2019-06-26T10:37:42.570Z,99376.06
2019-06-26T10:38:50.790Z,99380.05
2019-06-26T10:39:59.592Z,99381.88
2019-06-26T10:41:07.569Z,99376.42
2019-06-26T10:42:16.737Z,99371.75
2019-06-26T10:43:24.922Z,99368.69
2019-06-26T10:44:33.917Z,99369.55
2019-06-26T10:45:41.924Z,99366.77
2019-06-26T10:46:50.695Z,99366.83
2019-06-26T10:47:58.689Z,99374.59
2019-06-26T10:49:07.599Z,99367.92
2019-06-26T10:50:16.377Z,99360.91
2019-06-26T10:51:25.217Z,99352.73
2019-06-26T10:52:33.260Z,99353.88
2019-06-26T10:53:41.960Z,99360.02
2019-06-26T10:54:49.923Z,99363.00
2019-06-26T10:55:58.572Z,99354.61
2019-06-26T10:57:06.472Z,99355.66
2019-06-26T10:58:15.366Z,99355.88
2019-06-26T10:59:23.655Z,99352.95
2019-06-26T11:00:33.915Z,99354.27
2019-06-26T11:01:41.945Z,99363.81
2019-06-26T11:02:50.834Z,99351.53
2019-06-26T11:03:59.154Z,99347.58
2019-06-26T11:05:10.882Z,99343.98
2019-06-26T11:06:18.720Z,99342.60
2019-06-26T11:07:27.513Z,99346.34
2019-06-26T11:08:35.397Z,99356.10
2019-06-26T11:09:43.703Z,99367.08
2019-06-26T11:10:51.695Z,99352.85
2019-06-26T11:12:00.438Z,99343.57
2019-06-26T11:13:08.695Z,99359.20
2019-06-26T11:14:17.400Z,99352.86
2019-06-26T11:15:26.347Z,99350.54
2019-06-26T11:16:35.254Z,99347.11
2019-06-26T11:17:43.354Z,99332.47
2019-06-26T11:18:52.278Z,99346.63
2019-06-26T11:20:00.221Z,99335.88
2019-06-26T11:21:09.243Z,99338.64
2019-06-26T11:22:17.176Z,99330.66
2019-06-26T11:23:26.053Z,99334.02
2019-06-26T11:24:34.093Z,99327.12
2019-06-26T11:25:44.462Z,99336.49
2019-06-26T11:26:52.933Z,99334.20
2019-06-26T11:28:01.950Z,99332.88
2019-06-26T11:29:10.390Z,99331.80
2019-06-26T11:30:22.333Z,99334.57
2019-06-26T11:31:30.454Z,99327.66
2019-06-26T11:32:40.240Z,99329.05
2019-06-26T11:33:48.191Z,99322.41
2019-06-26T11:34:57.258Z,99325.98
2019-06-26T11:36:05.685Z,99308.84
2019-06-26T11:37:14.532Z,99326.58
2019-06-26T11:38:22.439Z,99313.56
2019-06-26T11:39:31.411Z,99313.02
2019-06-26T11:40:39.625Z,99308.61
2019-06-26T11:41:48.665Z,99326.56
2019-06-26T11:42:56.912Z,99316.59
2019-06-26T11:44:05.689Z,99300.85
2019-06-26T11:45:15.050Z,99302.26
2019-06-26T11:46:23.591Z,99311.62
2019-06-26T11:47:31.736Z,99306.36
2019-06-26T11:48:40.503Z,99306.11
2019-06-26T11:49:59.498Z,99300.53
2019-06-26T11:50:58.986Z,99302.69
2019-06-26T11:52:07.142Z,99306.95
2019-06-26T11:53:16.381Z,99306.05
2019-06-26T11:54:24.361Z,99300.34
2019-06-26T11:55:33.213Z,99298.80
2019-06-26T11:56:41.485Z,99294.50
2019-06-26T11:57:51.516Z,99303.14
2019-06-26T11:58:59.715Z,99301.94
2019-06-26T12:00:12.924Z,99297.91
2019-06-26T12:01:21.408Z,99299.20
2019-06-26T12:02:30.092Z,99298.55
2019-06-26T12:03:38.168Z,99282.21
2019-06-26T12:04:46.967Z,99288.77
2019-06-26T12:06:10.528Z,99291.14
2019-06-26T12:07:05.353Z,99285.13
2019-06-26T12:08:13.463Z,99285.48
2019-06-26T12:09:22.223Z,99275.71
2019-06-26T12:10:30.219Z,99279.48
2019-06-26T12:11:38.888Z,99270.73
2019-06-26T12:12:47.090Z,99282.78
2019-06-26T12:13:56.141Z,99270.73
2019-06-26T12:15:04.220Z,99278.63
2019-06-26T12:16:13.156Z,99272.05
2019-06-26T12:17:21.137Z,99274.73
2019-06-26T12:18:29.162Z,99272.27
2019-06-26T12:19:37.200Z,99267.36
2019-06-26T12:20:46.191Z,99272.31
2019-06-26T12:21:54.373Z,99262.83
2019-06-26T12:23:03.066Z,99261.48
2019-06-26T12:24:11.365Z,99269.78
2019-06-26T12:25:20.391Z,99268.38
2019-06-26T12:26:28.315Z,99262.23
2019-06-26T12:27:37.418Z,99268.91
2019-06-26T12:28:45.531Z,99266.66
2019-06-26T12:29:54.315Z,99261.59
2019-06-26T12:31:02.605Z,99252.14
2019-06-26T12:32:11.508Z,99267.63
2019-06-26T12:33:19.575Z,99264.01
2019-06-26T12:34:28.778Z,99265.44
2019-06-26T12:35:36.678Z,99264.41
2019-06-26T12:36:45.577Z,99255.58
2019-06-26T12:37:55.328Z,99258.06
2019-06-26T12:39:04.287Z,99251.98
2019-06-26T12:40:14.281Z,99251.12
2019-06-26T12:41:23.275Z,99251.00
2019-06-26T12:42:31.576Z,99249.76
2019-06-26T12:43:40.373Z,99244.89
2019-06-26T12:44:48.395Z,99250.48
2019-06-26T12:45:57.198Z,99249.78
2019-06-26T12:47:05.110Z,99242.41
2019-06-26T12:48:16.302Z,99243.96
2019-06-26T12:49:23.817Z,99233.13
2019-06-26T12:50:36.019Z,99243.96
2019-06-26T12:51:42.470Z,99241.58
2019-06-26T12:52:51.524Z,99243.70
2019-06-26T12:53:59.615Z,99240.36
2019-06-26T12:55:09.369Z,99240.45
2019-06-26T12:56:17.654Z,99231.37
2019-06-26T12:57:26.279Z,99231.90
2019-06-26T12:58:34.487Z,99228.16
2019-06-26T12:59:56.464Z,99218.38
2019-06-26T13:00:53.623Z,99224.23
2019-06-26T13:02:02.635Z,99218.63
2019-06-26T13:03:10.841Z,99221.86
2019-06-26T13:04:19.858Z,99226.28
2019-06-26T13:05:28.045Z,99232.20
2019-06-26T13:06:36.845Z,99221.25
2019-06-26T13:07:45.131Z,99215.12
2019-06-26T13:08:54.087Z,99220.80
2019-06-26T13:10:02.254Z,99216.30
2019-06-26T13:11:11.186Z,99217.90
2019-06-26T13:12:19.620Z,99214.91
2019-06-26T13:13:28.644Z,99213.83
2019-06-26T13:14:36.677Z,99212.02
2019-06-26T13:15:45.433Z,99213.82
2019-06-26T13:16:53.597Z,99212.31
2019-06-26T13:18:02.634Z,99206.37
2019-06-26T13:19:11.324Z,99207.38
2019-06-26T13:20:20.501Z,99206.92
2019-06-26T13:21:29.059Z,99208.11
2019-06-26T13:22:38.088Z,99207.85
2019-06-26T13:23:45.897Z,99198.94
2019-06-26T13:24:54.975Z,99197.38
2019-06-26T13:26:03.221Z,99192.02
2019-06-26T13:27:12.042Z,99198.26
2019-06-26T13:28:20.454Z,99202.56
2019-06-26T13:29:29.353Z,99192.70
2019-06-26T13:30:41.100Z,99196.79
2019-06-26T13:31:49.998Z,99194.48
2019-06-26T13:32:58.727Z,99197.47
2019-06-26T13:34:07.398Z,99197.95